RJSM(METAR)
03/23 15:00
METAR RJSM 230600Z 28016KT 9999 -SHSN FEW015 SCT025 04/M05 Q1012 RMK
2CU015 4CU025 A2990 MAX WIND 23KT=
戻る
トップページへ戻る
IMOC Co,.Ltd.